Accueil
METAR-TAF:

METAR-TAF

Aéroports :

Aéroport d'Ivujivik

Ivujivik, Québec, Canada

latitude: 62-25N, longitude: 077-57W, altitude: 42 m

Observation

Le bulletin a été fait il y a 1 heure et 51 minutes, à 12:00 UTC
Vent 9 kt de sud
Température -3°C
Humidité 86%
Pression 1019 hPa
Visibilité: 24.1 km
Quelques nuages à une hauteur de 900 ft
Quelques nuages à une hauteur de 1400 ft
Ciel couvert à une hauteur de 1800 ft

METAR: CYIK 011200Z 18009KT 15SM FEW009 FEW014 OVC018 M03/M05 A3009 RMK ST1ST1SC7 ST TR SN CVR NIL SLP194

Heure: 09:51 (13:51 UTC)


TAF: absent

Observations et prévisions météorologiques de plus de 4000 aéroports (messages METAR et TAF).

Les stations disponibles sont représentées par des disques jaunes et rouges sur la carte.

Passer la souris dessus pour voir le nom de la station.

Cliquer dessus pour voir les observations et prévisions météorologiques.

Pour changer de carte: cliquez sur les boutons verts avec une croix noire pour zoomer, sur le bouton vert avec un tiret pour effectuer un zoom arrière, ou sur les flèches vertes pour les cartes adjacentes.


METAR-TAF: